createdAt,value
2023-01-08T00:00:20.566Z,99097.28
2023-01-08T00:02:50.033Z,99095.34
2023-01-08T00:05:17.159Z,99087.41
2023-01-08T00:07:43.830Z,99096.06
2023-01-08T00:12:38.312Z,99094.91
2023-01-08T00:15:05.788Z,99105.28
2023-01-08T00:17:32.909Z,99083.94
2023-01-08T00:20:03.747Z,99086.88
2023-01-08T00:22:30.806Z,99080.56
2023-01-08T00:24:57.490Z,99072.81
2023-01-08T00:27:24.174Z,99070.47
2023-01-08T00:29:50.834Z,99068.22
2023-01-08T00:32:17.480Z,99073.56
2023-01-08T00:34:44.152Z,99080.00
2023-01-08T00:37:15.506Z,99071.97
2023-01-08T00:39:42.237Z,99075.84
2023-01-08T00:42:08.924Z,99070.09
2023-01-08T00:44:35.723Z,99064.50
2023-01-08T00:47:02.499Z,99055.22
2023-01-08T00:49:29.395Z,99067.53
2023-01-08T00:51:56.779Z,99062.66
2023-01-08T00:54:23.511Z,99056.09
2023-01-08T00:56:50.173Z,99048.72
2023-01-08T00:59:16.930Z,99042.75
2023-01-08T01:01:43.878Z,99041.47
2023-01-08T01:04:10.725Z,99038.19
2023-01-08T01:06:37.829Z,99036.25
2023-01-08T01:09:04.537Z,99039.94
2023-01-08T01:11:31.256Z,99033.22
2023-01-08T01:13:58.131Z,99025.97
2023-01-08T01:16:25.623Z,99021.78
2023-01-08T01:18:52.868Z,99015.28
2023-01-08T01:21:19.547Z,99009.88
2023-01-08T01:23:46.203Z,99009.09
2023-01-08T01:26:17.644Z,99008.69
2023-01-08T01:28:46.634Z,99005.19
2023-01-08T01:31:14.038Z,99016.56
2023-01-08T01:33:42.249Z,99008.94
2023-01-08T01:38:37.897Z,99002.47
2023-01-08T01:41:05.188Z,99008.88
2023-01-08T01:43:41.476Z,99003.69
2023-01-08T01:46:12.349Z,98998.88
2023-01-08T01:48:39.131Z,98997.25
2023-01-08T01:51:06.188Z,99005.97
2023-01-08T01:53:36.049Z,99004.50
2023-01-08T01:56:04.564Z,99009.28
2023-01-08T01:58:32.635Z,99000.09
2023-01-08T02:01:03.974Z,99003.34
2023-01-08T02:03:33.534Z,99003.03
2023-01-08T02:06:13.292Z,99000.69
2023-01-08T02:08:57.278Z,98999.19
2023-01-08T02:11:38.015Z,99006.78
2023-01-08T02:14:13.341Z,99010.72
2023-01-08T02:16:59.621Z,98991.72
2023-01-08T02:19:35.986Z,98985.13
2023-01-08T02:22:12.336Z,98989.69
2023-01-08T02:24:54.375Z,98996.38
2023-01-08T02:27:25.376Z,98997.56
2023-01-08T02:29:54.423Z,99003.38
2023-01-08T02:32:27.385Z,99004.56
2023-01-08T02:34:55.260Z,99002.91
2023-01-08T02:37:22.015Z,98996.38
2023-01-08T02:42:51.225Z,98979.56
2023-01-08T02:45:42.954Z,98969.72
2023-01-08T02:48:13.399Z,98974.00
2023-01-08T02:50:49.515Z,98974.88
2023-01-08T02:53:30.711Z,98957.19
2023-01-08T02:56:12.472Z,98954.13
2023-01-08T02:58:41.004Z,98941.44
2023-01-08T03:03:41.691Z,98935.03
2023-01-08T03:08:44.598Z,98924.50
2023-01-08T03:11:12.393Z,98928.66
2023-01-08T03:13:58.140Z,98931.97
2023-01-08T03:16:37.721Z,98933.44
2023-01-08T03:21:38.775Z,98933.22
2023-01-08T03:24:07.014Z,98926.22
2023-01-08T03:26:36.233Z,98921.72
2023-01-08T03:29:04.512Z,98934.44
2023-01-08T03:31:35.975Z,98932.81
2023-01-08T03:34:04.133Z,98925.19
2023-01-08T03:36:33.606Z,98924.81
2023-01-08T03:39:08.293Z,98920.16
2023-01-08T03:41:36.783Z,98926.66
2023-01-08T03:44:03.945Z,98928.09
2023-01-08T03:46:34.261Z,98917.63
2023-01-08T03:49:02.443Z,98915.19
2023-01-08T03:51:29.200Z,98917.28
2023-01-08T03:53:58.984Z,98908.69
2023-01-08T03:56:26.135Z,98906.59
2023-01-08T03:58:52.830Z,98897.91
2023-01-08T04:01:22.409Z,98899.16
2023-01-08T04:03:49.129Z,98899.53
2023-01-08T04:06:15.885Z,98898.69
2023-01-08T04:08:42.578Z,98896.25
2023-01-08T04:11:09.223Z,98896.28
2023-01-08T04:13:35.924Z,98889.00
2023-01-08T04:16:02.704Z,98891.69
2023-01-08T04:18:29.578Z,98889.25
2023-01-08T04:20:56.266Z,98887.81
2023-01-08T04:23:23.061Z,98882.75
2023-01-08T04:25:49.805Z,98891.94
2023-01-08T04:28:16.458Z,98888.53
2023-01-08T04:30:43.180Z,98872.50
2023-01-08T04:33:09.951Z,98870.03
2023-01-08T04:35:36.754Z,98843.72
2023-01-08T04:38:03.524Z,98858.94
2023-01-08T04:40:32.834Z,98854.41
2023-01-08T04:43:00.134Z,98845.97
2023-01-08T04:45:29.831Z,98836.75
2023-01-08T04:47:57.847Z,98829.75
2023-01-08T04:50:25.189Z,98847.59
2023-01-08T04:52:52.064Z,98866.31
2023-01-08T04:55:19.187Z,98868.38
2023-01-08T04:57:45.978Z,98865.50
2023-01-08T05:00:13.420Z,98860.56
2023-01-08T05:02:40.175Z,98851.53
2023-01-08T05:05:07.437Z,98844.13
2023-01-08T05:07:34.236Z,98850.47
2023-01-08T05:10:00.891Z,98849.66
2023-01-08T05:12:27.626Z,98828.50
2023-01-08T05:14:54.255Z,98835.50
2023-01-08T05:17:20.972Z,98839.41
2023-01-08T05:19:47.651Z,98839.38
2023-01-08T05:22:14.492Z,98836.50
2023-01-08T05:24:41.221Z,98832.41
2023-01-08T05:27:07.883Z,98823.97
2023-01-08T05:29:34.520Z,98825.63
2023-01-08T05:32:01.178Z,98825.19
2023-01-08T05:34:28.019Z,98815.75
2023-01-08T05:36:54.757Z,98811.63
2023-01-08T05:39:21.380Z,98815.34
2023-01-08T05:41:48.123Z,98820.25
2023-01-08T05:44:14.819Z,98821.09
2023-01-08T05:46:41.638Z,98825.63
2023-01-08T05:49:08.323Z,98831.59
2023-01-08T05:51:35.117Z,98832.41
2023-01-08T05:54:02.007Z,98828.50
2023-01-08T05:56:28.730Z,98818.63
2023-01-08T05:58:56.146Z,98815.75
2023-01-08T06:01:22.958Z,98811.66
2023-01-08T06:03:49.860Z,98811.81
2023-01-08T06:06:16.931Z,98815.72
2023-01-08T06:08:43.698Z,98809.16
2023-01-08T06:13:41.669Z,98808.75
2023-01-08T06:16:08.542Z,98808.34
2023-01-08T06:18:35.629Z,98807.03
2023-01-08T06:21:05.379Z,98812.22
2023-01-08T06:23:32.893Z,98809.16
2023-01-08T06:26:04.380Z,98812.66
2023-01-08T06:28:31.897Z,98813.63
2023-01-08T06:31:00.377Z,98810.91
2023-01-08T06:33:27.056Z,98824.28
2023-01-08T06:35:53.773Z,98818.50
2023-01-08T06:38:20.806Z,98823.44
2023-01-08T06:40:47.987Z,98827.75
2023-01-08T06:43:15.020Z,98834.53
2023-01-08T06:45:41.728Z,98834.78
2023-01-08T06:48:08.493Z,98836.00
2023-01-08T06:50:35.684Z,98831.66
2023-01-08T06:53:02.598Z,98839.88
2023-01-08T06:55:29.320Z,98827.78
2023-01-08T06:57:59.208Z,98827.97
2023-01-08T07:00:27.598Z,98837.03
2023-01-08T07:02:54.892Z,98845.66
2023-01-08T07:05:22.129Z,98835.41
2023-01-08T07:07:49.023Z,98835.00
2023-01-08T07:10:16.269Z,98840.34
2023-01-08T07:12:43.629Z,98841.78
2023-01-08T07:15:10.709Z,98836.91
2023-01-08T07:17:37.860Z,98834.22
2023-01-08T07:20:05.100Z,98842.44
2023-01-08T07:22:31.773Z,98842.47
2023-01-08T07:24:58.457Z,98851.53
2023-01-08T07:27:25.110Z,98845.31
2023-01-08T07:29:51.711Z,98842.91
2023-01-08T07:32:18.359Z,98843.72
2023-01-08T07:34:45.035Z,98847.84
2023-01-08T07:39:38.271Z,98839.63
2023-01-08T07:42:04.971Z,98843.53
2023-01-08T07:44:31.582Z,98832.22
2023-01-08T07:46:58.319Z,98830.19
2023-01-08T07:49:24.996Z,98825.66
2023-01-08T07:51:52.175Z,98843.31
2023-01-08T07:54:18.837Z,98829.34
2023-01-08T07:56:46.473Z,98831.44
2023-01-08T07:59:13.108Z,98824.41
2023-01-08T08:01:39.820Z,98818.03
2023-01-08T08:04:06.575Z,98820.94
2023-01-08T08:06:33.216Z,98832.06
2023-01-08T08:09:00.227Z,98844.38
2023-01-08T08:11:26.968Z,98844.59
2023-01-08T08:13:55.940Z,98825.47
2023-01-08T08:16:23.530Z,98823.59
2023-01-08T08:18:50.312Z,98824.41
2023-01-08T08:21:16.967Z,98831.00
2023-01-08T08:23:43.933Z,98831.84
2023-01-08T08:26:10.623Z,98831.03
2023-01-08T08:28:37.443Z,98820.31
2023-01-08T08:31:05.057Z,98831.00
2023-01-08T08:33:32.433Z,98833.06
2023-01-08T08:35:59.163Z,98826.91
2023-01-08T08:38:26.671Z,98823.19
2023-01-08T08:40:53.656Z,98822.38
2023-01-08T08:43:23.484Z,98816.16
2023-01-08T08:45:50.150Z,98821.50
2023-01-08T08:48:17.188Z,98811.56
2023-01-08T08:50:46.840Z,98819.22
2023-01-08T08:53:13.553Z,98818.34
2023-01-08T08:55:40.249Z,98813.22
2023-01-08T08:58:11.105Z,98814.25
2023-01-08T09:00:42.753Z,98811.53
2023-01-08T09:03:13.573Z,98809.88
2023-01-08T09:05:40.376Z,98811.53
2023-01-08T09:08:07.049Z,98805.31
2023-01-08T09:10:33.794Z,98807.81
2023-01-08T09:13:00.651Z,98797.47
2023-01-08T09:15:27.415Z,98812.56
2023-01-08T09:17:58.334Z,98808.25
2023-01-08T09:20:26.576Z,98806.94
2023-01-08T09:22:53.593Z,98812.75
2023-01-08T09:25:20.690Z,98809.06
2023-01-08T09:27:47.959Z,98806.78
2023-01-08T09:30:14.752Z,98802.88
2023-01-08T09:32:41.491Z,98811.13
2023-01-08T09:35:08.702Z,98812.56
2023-01-08T09:37:35.472Z,98811.47
2023-01-08T09:40:03.129Z,98819.69
2023-01-08T09:42:32.172Z,98815.00
2023-01-08T09:45:01.925Z,98804.44
2023-01-08T09:47:38.862Z,98806.31
2023-01-08T09:52:38.779Z,98794.94
2023-01-08T09:55:12.563Z,98795.75
2023-01-08T09:57:39.323Z,98806.84
2023-01-08T10:02:40.743Z,98796.69
2023-01-08T10:05:13.543Z,98798.13
2023-01-08T10:07:40.368Z,98798.56
2023-01-08T10:10:12.556Z,98785.94
2023-01-08T10:12:40.061Z,98778.47
2023-01-08T10:17:41.220Z,98784.00
2023-01-08T10:20:13.537Z,98771.69
2023-01-08T10:22:40.530Z,98772.13
2023-01-08T10:25:10.931Z,98771.63
2023-01-08T10:27:47.228Z,98761.72
2023-01-08T10:30:19.708Z,98765.00
2023-01-08T10:32:54.581Z,98753.66
2023-01-08T10:35:29.259Z,98753.63
2023-01-08T10:37:56.653Z,98764.59
2023-01-08T10:40:42.304Z,98760.84
2023-01-08T10:43:13.602Z,98759.63
2023-01-08T10:45:42.155Z,98760.88
2023-01-08T10:48:13.714Z,98762.09
2023-01-08T10:50:40.392Z,98763.97
2023-01-08T10:53:13.696Z,98758.22
2023-01-08T10:55:40.963Z,98760.06
2023-01-08T10:58:10.368Z,98765.44
2023-01-08T11:00:38.289Z,98766.50
2023-01-08T11:03:13.629Z,98756.00
2023-01-08T11:05:43.137Z,98762.59
2023-01-08T11:08:13.713Z,98760.06
2023-01-08T11:10:40.766Z,98752.63
2023-01-08T11:13:09.529Z,98755.50
2023-01-08T11:15:41.591Z,98747.19
2023-01-08T11:18:13.682Z,98752.56
2023-01-08T11:20:42.188Z,98752.56
2023-01-08T11:23:13.599Z,98748.00
2023-01-08T11:25:43.145Z,98742.00
2023-01-08T11:28:14.087Z,98738.44
2023-01-08T11:30:44.445Z,98728.81
2023-01-08T11:33:13.706Z,98727.09
2023-01-08T11:35:46.299Z,98721.88
2023-01-08T11:38:13.461Z,98711.38
2023-01-08T11:40:45.940Z,98704.91
2023-01-08T11:43:13.734Z,98716.88
2023-01-08T11:46:02.359Z,98702.38
2023-01-08T11:48:49.308Z,98704.22
2023-01-08T11:51:34.803Z,98699.53
2023-01-08T11:54:14.436Z,98703.94
2023-01-08T11:57:01.737Z,98697.38
2023-01-08T11:59:48.299Z,98690.22
2023-01-08T12:02:19.735Z,98677.56
2023-01-08T12:04:56.512Z,98674.94
2023-01-08T12:07:26.282Z,98666.94
2023-01-08T12:10:05.229Z,98648.84
2023-01-08T12:12:55.426Z,98646.56
2023-01-08T12:15:31.164Z,98647.53
2023-01-08T12:18:13.624Z,98651.84
2023-01-08T12:20:54.172Z,98642.63
2023-01-08T12:23:56.482Z,98635.72
2023-01-08T12:26:55.779Z,98632.31
2023-01-08T12:29:28.508Z,98623.94
2023-01-08T12:32:13.664Z,98613.31
2023-01-08T12:34:55.846Z,98615.56
2023-01-08T12:37:59.841Z,98606.88
2023-01-08T12:40:36.142Z,98613.34
2023-01-08T12:45:43.831Z,98611.09
2023-01-08T12:48:12.682Z,98610.59
2023-01-08T12:50:48.494Z,98624.94
2023-01-08T12:53:22.770Z,98626.66
2023-01-08T12:55:58.762Z,98623.59
2023-01-08T12:58:32.719Z,98602.91
2023-01-08T13:01:11.039Z,98602.06
2023-01-08T13:03:39.356Z,98595.41
2023-01-08T13:06:11.018Z,98596.50
2023-01-08T13:08:40.480Z,98590.75
2023-01-08T13:11:08.771Z,98587.22
2023-01-08T13:13:39.975Z,98587.22
2023-01-08T13:16:20.103Z,98583.13
2023-01-08T13:18:54.562Z,98576.13
2023-01-08T13:21:31.417Z,98585.13
2023-01-08T13:24:12.690Z,98588.06
2023-01-08T13:26:39.651Z,98580.81
2023-01-08T13:29:13.645Z,98586.81
2023-01-08T13:31:43.142Z,98585.91
2023-01-08T13:34:13.792Z,98586.41
2023-01-08T13:36:40.608Z,98595.19
2023-01-08T13:39:10.246Z,98603.84
2023-01-08T13:41:41.637Z,98606.44
2023-01-08T13:44:13.811Z,98606.44
2023-01-08T13:46:41.538Z,98587.13
2023-01-08T13:49:13.637Z,98586.06
2023-01-08T13:51:42.520Z,98575.06
2023-01-08T13:56:40.175Z,98565.84
2023-01-08T13:59:12.731Z,98559.63
2023-01-08T14:01:39.583Z,98547.59
2023-01-08T14:04:06.404Z,98535.78
2023-01-08T14:06:35.060Z,98527.81
2023-01-08T14:09:04.420Z,98520.34
2023-01-08T14:11:44.882Z,98517.19
2023-01-08T14:14:12.854Z,98510.50
2023-01-08T14:16:41.647Z,98509.78
2023-01-08T14:19:08.919Z,98516.00
2023-01-08T14:21:35.694Z,98529.06
2023-01-08T14:24:02.869Z,98543.44
2023-01-08T14:26:36.242Z,98547.19
2023-01-08T14:29:12.712Z,98546.47
2023-01-08T14:31:47.261Z,98563.50
2023-01-08T14:34:15.065Z,98551.09
2023-01-08T14:36:43.194Z,98548.41
2023-01-08T14:39:12.819Z,98546.69
2023-01-08T14:42:00.858Z,98540.34
2023-01-08T14:44:36.694Z,98536.16
2023-01-08T14:47:07.098Z,98536.53
2023-01-08T14:49:40.948Z,98539.91
2023-01-08T14:54:39.002Z,98526.69
2023-01-08T14:57:05.779Z,98532.97
2023-01-08T14:59:37.960Z,98532.38
2023-01-08T15:02:08.591Z,98528.88
2023-01-08T15:04:35.470Z,98514.03
2023-01-08T15:07:12.727Z,98515.66
2023-01-08T15:09:40.164Z,98519.97
2023-01-08T15:12:08.345Z,98509.31
2023-01-08T15:14:37.127Z,98512.69
2023-01-08T15:19:53.857Z,98515.13
2023-01-08T15:22:24.336Z,98513.34
2023-01-08T15:24:58.508Z,98518.41
2023-01-08T15:27:26.515Z,98505.97
2023-01-08T15:30:00.082Z,98507.22
2023-01-08T15:32:37.493Z,98500.53
2023-01-08T15:38:07.187Z,98500.41
2023-01-08T15:40:33.868Z,98498.03
2023-01-08T15:43:12.990Z,98487.53
2023-01-08T15:45:44.321Z,98486.09
2023-01-08T15:48:11.338Z,98483.69
2023-01-08T15:50:40.678Z,98485.78
2023-01-08T15:53:24.494Z,98471.75
2023-01-08T15:55:52.032Z,98467.22
2023-01-08T15:58:19.111Z,98469.56
2023-01-08T16:00:47.452Z,98464.94
2023-01-08T16:03:15.391Z,98473.06
2023-01-08T16:05:42.325Z,98456.28
2023-01-08T16:08:10.679Z,98453.09
2023-01-08T16:10:37.494Z,98447.22
2023-01-08T16:13:04.139Z,98432.91
2023-01-08T16:15:31.124Z,98436.09
2023-01-08T16:17:59.356Z,98443.19
2023-01-08T16:20:26.643Z,98438.75
2023-01-08T16:22:54.893Z,98434.53
2023-01-08T16:25:21.819Z,98434.91
2023-01-08T16:27:48.635Z,98435.91
2023-01-08T16:30:15.905Z,98436.88
2023-01-08T16:32:43.711Z,98432.63
2023-01-08T16:35:11.141Z,98425.91
2023-01-08T16:37:38.438Z,98419.56
2023-01-08T16:40:05.865Z,98423.09
2023-01-08T16:42:32.625Z,98423.09
2023-01-08T16:44:59.343Z,98423.91
2023-01-08T16:47:26.098Z,98414.75
2023-01-08T16:49:53.064Z,98428.59
2023-01-08T16:54:47.146Z,98415.47
2023-01-08T16:57:14.139Z,98411.31
2023-01-08T16:59:40.785Z,98415.84
2023-01-08T17:02:07.585Z,98412.50
2023-01-08T17:04:34.540Z,98403.97
2023-01-08T17:07:01.316Z,98409.66
2023-01-08T17:09:28.097Z,98403.72
2023-01-08T17:11:54.793Z,98401.03
2023-01-08T17:14:21.657Z,98396.22
2023-01-08T17:16:49.268Z,98398.44
2023-01-08T17:19:16.417Z,98396.59
2023-01-08T17:21:43.903Z,98386.59
2023-01-08T17:24:10.685Z,98383.03
2023-01-08T17:26:37.425Z,98377.44
2023-01-08T17:29:04.370Z,98384.69
2023-01-08T17:31:36.789Z,98371.50
2023-01-08T17:34:03.488Z,98364.56
2023-01-08T17:36:32.317Z,98366.72
2023-01-08T17:39:01.052Z,98371.25
2023-01-08T17:41:46.467Z,98366.81
2023-01-08T17:44:13.780Z,98359.66
2023-01-08T17:46:44.848Z,98357.19
2023-01-08T17:49:14.140Z,98355.31
2023-01-08T17:51:42.727Z,98353.25
2023-01-08T17:54:15.108Z,98345.50
2023-01-08T17:56:42.368Z,98344.28
2023-01-08T17:59:13.629Z,98341.41
2023-01-08T18:01:40.388Z,98336.19
2023-01-08T18:04:07.146Z,98327.72
2023-01-08T18:06:33.839Z,98324.31
2023-01-08T18:09:00.518Z,98335.84
2023-01-08T18:11:27.185Z,98330.19
2023-01-08T18:13:57.837Z,98322.16
2023-01-08T18:16:25.216Z,98315.00
2023-01-08T18:18:52.928Z,98305.97
2023-01-08T18:23:49.514Z,98306.34
2023-01-08T18:26:18.479Z,98308.88
2023-01-08T18:28:45.221Z,98306.19
2023-01-08T18:31:13.126Z,98309.78
2023-01-08T18:33:40.762Z,98303.53
2023-01-08T18:36:10.890Z,98314.63
2023-01-08T18:38:43.055Z,98302.81
2023-01-08T18:41:21.506Z,98291.50
2023-01-08T18:43:48.164Z,98294.44
2023-01-08T18:46:14.989Z,98298.94
2023-01-08T18:48:41.764Z,98299.69
2023-01-08T18:51:08.482Z,98306.81
2023-01-08T18:53:35.193Z,98306.94
2023-01-08T18:56:02.239Z,98298.78
2023-01-08T18:58:30.008Z,98288.34
2023-01-08T19:01:03.293Z,98287.97
2023-01-08T19:03:30.067Z,98288.06
2023-01-08T19:05:56.864Z,98288.06
2023-01-08T19:08:23.590Z,98274.78
2023-01-08T19:10:50.527Z,98274.47
2023-01-08T19:15:47.071Z,98265.59
2023-01-08T19:18:14.092Z,98259.28
2023-01-08T19:20:43.538Z,98257.03
2023-01-08T19:23:10.423Z,98251.91
2023-01-08T19:25:39.193Z,98248.84
2023-01-08T19:28:06.053Z,98252.34
2023-01-08T19:30:33.213Z,98244.31
2023-01-08T19:33:00.383Z,98236.72
2023-01-08T19:35:27.395Z,98236.72
2023-01-08T19:37:54.605Z,98241.25
2023-01-08T19:40:21.368Z,98234.94
2023-01-08T19:43:07.228Z,98231.66
2023-01-08T19:45:37.907Z,98230.47
2023-01-08T19:48:05.764Z,98232.13
2023-01-08T19:50:34.216Z,98237.03
2023-01-08T19:53:00.933Z,98234.19
2023-01-08T19:55:27.871Z,98220.22
2023-01-08T19:57:55.124Z,98207.94
2023-01-08T20:00:22.753Z,98216.19
2023-01-08T20:02:51.596Z,98220.38
2023-01-08T20:05:18.986Z,98200.91
2023-01-08T20:07:45.775Z,98207.72
2023-01-08T20:10:13.198Z,98198.03
2023-01-08T20:12:40.001Z,98203.28
2023-01-08T20:15:07.169Z,98202.25
2023-01-08T20:17:33.888Z,98201.16
2023-01-08T20:20:00.873Z,98202.25
2023-01-08T20:22:29.193Z,98207.94
2023-01-08T20:24:58.347Z,98188.59
2023-01-08T20:27:25.300Z,98195.81
2023-01-08T20:29:52.198Z,98185.91
2023-01-08T20:34:46.157Z,98176.16
2023-01-08T20:37:12.832Z,98170.81
2023-01-08T20:39:39.709Z,98169.63
2023-01-08T20:42:07.214Z,98165.91
2023-01-08T20:44:34.206Z,98157.41
2023-01-08T20:47:02.284Z,98155.19
2023-01-08T20:49:29.843Z,98159.41
2023-01-08T20:51:59.531Z,98144.81
2023-01-08T20:54:26.685Z,98146.22
2023-01-08T20:56:55.749Z,98141.69
2023-01-08T20:59:24.324Z,98135.03
2023-01-08T21:01:51.521Z,98141.56
2023-01-08T21:04:18.917Z,98133.19
2023-01-08T21:06:45.852Z,98129.34
2023-01-08T21:09:14.286Z,98121.41
2023-01-08T21:11:41.449Z,98126.78
2023-01-08T21:14:09.283Z,98122.59
2023-01-08T21:16:37.014Z,98112.78
2023-01-08T21:19:04.089Z,98115.25
2023-01-08T21:21:34.193Z,98105.34
2023-01-08T21:24:04.518Z,98110.72
2023-01-08T21:26:34.039Z,98106.66
2023-01-08T21:29:03.230Z,98104.19
2023-01-08T21:31:30.679Z,98103.03
2023-01-08T21:33:59.136Z,98100.00
2023-01-08T21:36:28.475Z,98107.34
2023-01-08T21:38:59.740Z,98104.66
2023-01-08T21:41:46.717Z,98100.34
2023-01-08T21:44:21.576Z,98087.78
2023-01-08T21:46:48.717Z,98087.63
2023-01-08T21:49:16.087Z,98087.84
2023-01-08T21:52:01.712Z,98079.16
2023-01-08T21:54:28.390Z,98055.88
2023-01-08T21:56:55.082Z,98060.63
2023-01-08T21:59:21.875Z,98051.63
2023-01-08T22:01:48.630Z,98053.34
2023-01-08T22:04:15.445Z,98040.19
2023-01-08T22:06:42.996Z,98048.00
2023-01-08T22:09:09.983Z,98048.00
2023-01-08T22:11:36.726Z,98044.75
2023-01-08T22:14:03.439Z,98041.00
2023-01-08T22:16:30.262Z,98031.81
2023-01-08T22:18:57.232Z,98030.75
2023-01-08T22:21:24.083Z,98033.81
2023-01-08T22:23:50.773Z,98032.16
2023-01-08T22:26:17.577Z,98028.91
2023-01-08T22:28:44.317Z,98024.97
2023-01-08T22:31:13.428Z,98022.13
2023-01-08T22:33:40.572Z,98018.91
2023-01-08T22:36:10.132Z,98021.88
2023-01-08T22:38:37.743Z,98014.91
2023-01-08T22:41:05.405Z,98007.47
2023-01-08T22:43:32.081Z,98007.31
2023-01-08T22:46:00.439Z,98005.69
2023-01-08T22:48:27.944Z,97995.59
2023-01-08T22:50:54.856Z,97997.81
2023-01-08T22:53:21.753Z,97994.75
2023-01-08T22:55:48.789Z,97983.91
2023-01-08T22:58:16.468Z,97980.56
2023-01-08T23:00:43.896Z,97979.84
2023-01-08T23:03:10.915Z,97973.44
2023-01-08T23:05:37.761Z,97972.84
2023-01-08T23:08:04.687Z,97967.34
2023-01-08T23:10:32.082Z,97969.47
2023-01-08T23:12:59.067Z,97964.94
2023-01-08T23:15:25.883Z,97968.09
2023-01-08T23:17:53.023Z,97964.34
2023-01-08T23:22:47.005Z,97964.22
2023-01-08T23:25:13.872Z,97958.50
2023-01-08T23:27:40.770Z,97953.13
2023-01-08T23:30:08.087Z,97963.38
2023-01-08T23:32:34.768Z,97955.22
2023-01-08T23:35:01.424Z,97951.38
2023-01-08T23:37:28.191Z,97950.31
2023-01-08T23:39:54.869Z,97951.97
2023-01-08T23:42:21.607Z,97949.59
2023-01-08T23:44:51.055Z,97954.34
2023-01-08T23:47:17.720Z,97946.47
2023-01-08T23:49:44.405Z,97944.84
2023-01-08T23:52:11.376Z,97938.53
2023-01-08T23:54:38.113Z,97935.09
2023-01-08T23:57:06.760Z,97931.00
2023-01-08T23:59:33.478Z,97931.00
